Data for 06/27/2010

Time Sea-Level Adjusted Pressure Absolute Pressure Temperature Relative Humidity Dew Point   
(mb) (inHg) (mb) (inHg) (C) (F) (%) (C) (F)
00:05 1019 30.09 848 25.04 14.9 58.8 47 3.8 38.9
00:10 1019 30.09 848 25.04 15.1 59.2 46 3.5 38.4
00:15 1019 30.09 848 25.04 15.2 59.4 47 4.1 39.4
00:20 1019 30.09 848 25.04 15.2 59.3 45 3.5 38.4
00:25 1019 30.09 848 25.04 15.5 59.9 42 2.9 37.1
00:30 1019 30.09 848 25.04 15.6 60.1 43 3.3 37.9
00:35 1019 30.09 848 25.04 15.6 60.1 43 3.1 37.6
00:40 1019 30.09 848 25.04 15.4 59.7 44 3.2 37.8
00:45 1019 30.09 848 25.04 14.9 58.8 50 4.6 40.3
00:50 1019 30.09 848 25.04 13.9 57 55 5.2 41.4
00:55 1019 30.09 848 25.04 13.3 55.9 56 4.6 40.4
01:00 1019 30.09 848 25.04 13 55.3 57 4.8 40.6
01:05 1019 30.09 848 25.04 12.7 54.9 58 4.8 40.6
01:10 1019 30.09 848 25.04 12.7 54.9 56 4.3 39.7
01:15 1019 30.09 848 25.04 12.7 54.9 58 4.7 40.5
01:20 1019 30.09 848 25.04 12.5 54.6 58 4.6 40.3
01:25 1019 30.09 848 25.04 12.5 54.4 60 4.9 40.9
01:30 1019 30.09 848 25.04 12.1 53.8 60 4.7 40.5
01:35 1019 30.09 848 25.04 12.1 53.7 60 4.7 40.4
01:40 1019 30.09 848 25.04 12.2 53.9 60 4.6 40.3
01:45 1019 30.09 848 25.04 12.5 54.4 54 3.6 38.5
01:50 1019 30.09 849 25.07 13 55.3 55 4.2 39.5
01:55 1019 30.09 849 25.07 13.1 55.5 55 4.2 39.5
02:00 1019 30.09 849 25.07 13 55.3 55 4.2 39.6
02:05 1019 30.09 849 25.07 12.8 55 57 4.6 40.3
02:10 1019 30.09 849 25.07 12.7 54.8 57 4.3 39.8
02:15 1019 30.09 849 25.07 12.5 54.4 57 4.2 39.6
02:20 1019 30.09 849 25.07 12.4 54.3 57 4.1 39.4
02:25 1019 30.09 849 25.07 12.4 54.4 57 4.1 39.4
02:30 1019 30.09 849 25.07 12.5 54.5 57 4.2 39.5
02:35 1019 30.09 849 25.07 12.4 54.2 58 4.3 39.7
02:40 1019 30.09 849 25.07 12.2 54 57 4.1 39.3
02:45 1019 30.09 849 25.07 12.2 53.9 57 4 39.1
02:50 1019 30.09 849 25.07 12.1 53.8 58 4.1 39.3
02:55 1019 30.09 849 25.07 12 53.7 59 4.3 39.7
03:00 1020 30.12 849 25.07 11.5 52.7 64 4.9 40.8
03:05 1020 30.12 849 25.07 10.8 51.4 65 4.6 40.2
03:10 1020 30.12 849 25.07 10.7 51.3 64 4.3 39.8
03:15 1020 30.12 849 25.07 10.8 51.5 64 4.3 39.8
03:20 1020 30.12 849 25.07 11 51.7 62 4 39.2
03:25 1020 30.12 849 25.07 11.2 52.2 61 4.1 39.4
03:30 1020 30.12 849 25.07 11.3 52.4 60 3.8 38.8
03:35 1020 30.12 849 25.07 11.5 52.7 59 3.8 38.9
03:40 1020 30.12 849 25.07 11.6 52.9 58 3.8 38.9
03:45 1020 30.12 849 25.07 11.7 53.1 59 3.9 39.1
03:50 1020 30.12 849 25.07 11.7 53 60 4.2 39.5
03:55 1020 30.12 849 25.07 11.6 53 58 3.7 38.7
04:00 1020 30.12 849 25.07 11.7 53.1 59 4.1 39.4
04:05 1020 30.12 849 25.07 11.3 52.3 61 4.1 39.4
04:10 1020 30.12 849 25.07 11.1 51.9 62 4 39.3
04:15 1020 30.12 849 25.07 11 51.7 62 4 39.2
04:20 1020 30.12 849 25.07 11.1 52 61 3.8 38.9
04:25 1020 30.12 849 25.07 11.3 52.3 59 3.7 38.7
04:30 1020 30.12 849 25.07 11.4 52.6 59 3.8 38.8
04:35 1020 30.12 849 25.07 11.4 52.4 60 3.8 38.9
04:40 1020 30.12 849 25.07 11.4 52.5 59 3.8 38.8
04:45 1020 30.12 849 25.07 11.4 52.6 59 3.6 38.6
04:50 1020 30.12 849 25.07 11.4 52.5 58 3.4 38.2
04:55 1020 30.12 849 25.07 11.6 52.8 58 3.7 38.7
05:00 1020 30.12 849 25.07 11.4 52.5 59 3.8 38.8
05:05 1020 30.12 849 25.07 11.3 52.3 60 3.7 38.7
05:10 1020 30.12 849 25.07 11.2 52.1 60 3.8 38.8
05:15 1020 30.12 849 25.07 11 51.7 62 3.9 39
05:20 1020 30.12 849 25.07 10.7 51.2 63 4 39.2
05:25 1020 30.12 849 25.07 10.5 50.9 63 3.8 38.9
05:30 1020 30.12 849 25.07 10.2 50.3 68 4.5 40
05:35 1020 30.12 849 25.07 9.6 49.3 68 4 39.2
05:40 1020 30.12 849 25.07 9.7 49.5 68 4.1 39.3
05:45 1020 30.12 849 25.07 9.6 49.4 68 4 39.2
05:50 1020 30.12 849 25.07 9.6 49.3 67 3.9 39
05:55 1020 30.12 849 25.07 9.6 49.4 68 4 39.3
06:00 1020 30.12 849 25.07 9.9 49.8 66 3.8 38.8
06:05 1020 30.12 849 25.07 10.1 50.1 66 4.1 39.3
06:10 1020 30.12 849 25.07 10.1 50.1 66 4 39.3
06:15 1020 30.12 849 25.07 10.1 50.1 66 4.1 39.4
06:20 1020 30.12 849 25.07 10.1 50.1 66 4.1 39.4
06:25 1020 30.12 849 25.07 10.3 50.5 65 4 39.2
06:30 1020 30.12 849 25.07 10.4 50.7 64 3.9 39
06:35 1020 30.12 849 25.07 10.7 51.2 64 4.1 39.3
06:40 1020 30.12 849 25.07 10.9 51.5 62 4 39.1
06:45 1020 30.12 849 25.07 11.1 51.9 62 4.2 39.6
06:50 1020 30.12 849 25.07 11.1 52 62 4.1 39.3
06:55 1020 30.12 849 25.07 11.2 52.2 62 4.2 39.6
07:00 1020 30.12 850 25.1 11.4 52.5 62 4.3 39.8
07:05 1020 30.12 850 25.1 11.7 53 61 4.4 39.9
07:10 1020 30.12 850 25.1 12 53.6 61 4.7 40.5
07:15 1020 30.12 850 25.1 12.3 54.1 60 4.8 40.6
07:20 1020 30.12 850 25.1 12.5 54.5 60 4.9 40.8
07:25 1020 30.12 850 25.1 12.8 55 59 5 41
07:30 1020 30.12 850 25.1 13 55.3 57 4.7 40.4
07:35 1020 30.12 850 25.1 13.6 56.4 56 5 41
07:40 1020 30.12 850 25.1 14.1 57.3 54 5 41
07:45 1020 30.12 850 25.1 14.6 58.4 53 5.2 41.3
07:50 1020 30.12 850 25.1 15.6 60.1 49 5.1 41.2
07:55 1020 30.12 850 25.1 16.2 61.1 48 5.4 41.6
08:00 1020 30.12 850 25.1 16.5 61.8 48 5.5 42
08:05 1020 30.12 850 25.1 16.5 61.7 48 5.5 41.9
08:10 1020 30.12 850 25.1 16.6 61.9 48 5.8 42.4
08:15 1020 30.12 850 25.1 16.5 61.7 47 5.2 41.4
08:20 1020 30.12 850 25.1 17.1 62.8 47 5.7 42.2
08:25 1020 30.12 850 25.1 17.4 63.2 46 5.8 42.4
08:30 1020 30.12 850 25.1 17.6 63.7 45 5.6 42
08:35 1020 30.12 850 25.1 17.9 64.3 41 4.8 40.6
08:40 1020 30.12 850 25.1 17.9 64.3 43 5.5 41.8
08:45 1020 30.12 850 25.1 18.4 65.1 44 6 42.7
08:50 1020 30.12 850 25.1 17.9 64.2 44 5.5 41.8
08:55 1020 30.12 850 25.1 18.2 64.8 42 5 41.1
09:00 1020 30.12 850 25.1 18.2 64.8 40 4.4 39.9
09:05 1020 30.12 850 25.1 18.5 65.4 40 4.8 40.6
09:10 1020 30.12 850 25.1 18.9 66 40 5.3 41.5
09:15 1020 30.12 850 25.1 18.7 65.7 36 3.6 38.5
09:20 1020 30.12 850 25.1 18.8 65.8 34 2.8 37
09:25 1020 30.12 850 25.1 19.1 66.3 34 3 37.5
09:30 1020 30.12 850 25.1 19.6 67.3 33 3 37.4
09:35 1020 30.12 850 25.1 19 66.1 34 2.9 37.2
09:40 1020 30.12 850 25.1 19.4 66.9 33 3.1 37.5
09:45 1020 30.12 850 25.1 19.5 67 34 3.3 38
09:50 1020 30.12 850 25.1 18.7 65.6 33 2 35.7
09:55 1020 30.12 849 25.07 19.6 67.3 33 3.2 37.8
10:00 1020 30.12 849 25.07 19.6 67.2 33 3.1 37.7
10:05 1020 30.12 849 25.07 19.9 67.8 33 3.5 38.3
10:10 1020 30.12 849 25.07 20 68 31 2.4 36.4
10:15 1020 30.12 849 25.07 20.1 68.1 30 2.3 36.1
10:20 1020 30.12 849 25.07 20.6 69.1 30 2.8 37
10:25 1020 30.12 849 25.07 20.5 69 32 3.5 38.4
10:30 1020 30.12 849 25.07 20.8 69.4 30 2.8 37
10:35 1020 30.12 849 25.07 20.4 68.7 30 2.5 36.5
10:40 1020 30.12 849 25.07 20.7 69.3 29 2.3 36.2
10:45 1020 30.12 849 25.07 20.9 69.7 33 4.1 39.3
10:50 1020 30.12 849 25.07 20.1 68.2 31 2.5 36.5
10:55 1020 30.12 849 25.07 20.9 69.5 29 2.3 36.1
11:00 1020 30.12 849 25.07 20.6 69 31 3 37.4
11:05 1020 30.12 849 25.07 20.9 69.6 30 2.9 37.3
11:10 1020 30.12 849 25.07 20.5 68.9 31 3.1 37.6
11:15 1020 30.12 849 25.07 20.3 68.6 31 2.8 37.1
11:20 1020 30.12 849 25.07 20.5 68.9 32 3.5 38.3
11:25 1020 30.12 849 25.07 20.6 69.1 31 3.3 37.9
11:30 1020 30.12 849 25.07 21.4 70.5 30 3.1 37.6
11:35 1020 30.12 849 25.07 21 69.8 31 3.2 37.8
11:40 1020 30.12 849 25.07 20.4 68.8 31 2.8 37.1
11:45 1020 30.12 849 25.07 20.6 69.1 31 2.9 37.2
11:50 1020 30.12 849 25.07 21.1 70 30 3.2 37.8
11:55 1020 30.12 849 25.07 21.1 70 31 3.3 37.9
12:00 1020 30.12 849 25.07 20.8 69.5 31 3.3 37.9
12:05 1020 30.12 849 25.07 21.6 70.8 30 3.6 38.5
12:10 1020 30.12 849 25.07 20.6 69.1 31 3.1 37.6
12:15 1020 30.12 849 25.07 20.4 68.7 31 2.7 36.8
12:20 1020 30.12 849 25.07 21 69.9 31 3.3 37.9
12:25 1020 30.12 849 25.07 21.6 70.8 30 3.4 38.2
12:30 1020 30.12 849 25.07 22 71.5 30 3.8 38.8
12:35 1020 30.12 849 25.07 22.4 72.2 31 4.7 40.5
12:40 1020 30.12 849 25.07 22.2 71.9 30 3.9 39.1
12:45 1020 30.12 849 25.07 22.6 72.7 29 3.7 38.7
12:50 1020 30.12 849 25.07 23 73.5 28 4 39.2
12:55 1020 30.12 849 25.07 22 71.7 31 4.2 39.5
13:00 1019 30.09 849 25.07 22.3 72.1 30 4 39.1
13:05 1019 30.09 849 25.07 22.1 71.7 30 3.8 38.8
13:10 1019 30.09 849 25.07 22 71.5 30 3.8 38.8
13:15 1019 30.09 849 25.07 22 71.5 31 4.1 39.3
13:20 1019 30.09 849 25.07 21.6 70.8 32 4.3 39.7
13:25 1019 30.09 849 25.07 20.6 69 32 3.7 38.6
13:30 1019 30.09 849 25.07 21.4 70.5 31 3.8 38.9
13:35 1019 30.09 849 25.07 21.7 71.1 30 3.7 38.7
13:40 1019 30.09 848 25.04 22.2 71.9 32 4.7 40.4
13:45 1019 30.09 848 25.04 22.5 72.5 29 3.8 38.8
13:50 1019 30.09 848 25.04 21.8 71.3 29 3.2 37.8
13:55 1019 30.09 848 25.04 22.9 73.2 28 3.7 38.6
14:00 1019 30.09 848 25.04 23 73.5 30 4.7 40.5
14:05 1019 30.09 848 25.04 23.3 73.9 28 4.1 39.4
14:10 1019 30.09 848 25.04 23.8 74.9 28 4.3 39.7
14:15 1019 30.09 848 25.04 22.7 72.9 30 4.6 40.2
14:20 1019 30.09 848 25.04 23.2 73.7 29 4.5 40.1
14:25 1019 30.09 848 25.04 23.3 73.9 30 4.9 40.8
14:30 1019 30.09 848 25.04 23.2 73.7 30 4.8 40.6
14:35 1019 30.09 848 25.04 23.2 73.8 30 5 41
14:40 1019 30.09 848 25.04 23.3 73.9 30 5 41
14:45 1019 30.09 848 25.04 23.3 73.9 30 5 41.1
14:50 1019 30.09 848 25.04 23.4 74.2 29 4.8 40.6
14:55 1019 30.09 848 25.04 24.6 76.2 28 5.3 41.5
15:00 1019 30.09 848 25.04 24.5 76 28 5.2 41.4
15:05 1019 30.09 848 25.04 23.2 73.7 28 3.9 38.9
15:10 1019 30.09 848 25.04 23.9 75.1 27 4.2 39.6
15:15 1019 30.09 848 25.04 24.6 76.2 27 4.4 39.9
15:20 1019 30.09 848 25.04 24.2 75.6 28 4.6 40.3
15:25 1019 30.09 848 25.04 24.3 75.7 26 3.7 38.7
15:30 1019 30.09 848 25.04 24.5 76 27 4.6 40.2
15:35 1019 30.09 848 25.04 24.4 75.9 27 4.3 39.8
15:40 1019 30.09 848 25.04 24.7 76.4 26 4.3 39.7
15:45 1019 30.09 848 25.04 25 77.1 26 4.3 39.7
15:50 1019 30.09 848 25.04 24.9 76.8 26 4.1 39.4
15:55 1019 30.09 848 25.04 24.8 76.7 25 3.6 38.5
16:00 1019 30.09 848 25.04 25.2 77.4 25 3.9 39
16:05 1018 30.06 848 25.04 24.8 76.7 26 4.2 39.6
16:10 1018 30.06 848 25.04 25.1 77.1 25 3.6 38.5
16:15 1018 30.06 848 25.04 25.2 77.3 24 3.7 38.6
16:20 1018 30.06 848 25.04 25.3 77.6 25 3.9 39
16:25 1018 30.06 848 25.04 25.1 77.3 23 2.8 37.1
16:30 1018 30.06 848 25.04 24.7 76.5 25 3.5 38.2
16:35 1018 30.06 847 25.01 24.7 76.5 25 3.6 38.4
16:40 1018 30.06 847 25.01 25 77 25 3.7 38.7
16:45 1018 30.06 847 25.01 25 77 23 2.9 37.3
16:50 1018 30.06 847 25.01 24.7 76.5 25 3.8 38.9
16:55 1018 30.06 847 25.01 24.7 76.4 24 2.8 37.1
17:00 1018 30.06 847 25.01 25.2 77.4 23 3.2 37.7
17:05 1018 30.06 847 25.01 24.8 76.6 23 2.8 37
17:10 1018 30.06 847 25.01 24.8 76.7 24 3.1 37.6
17:15 1018 30.06 847 25.01 25 77 23 2.6 36.7
17:20 1018 30.06 847 25.01 25 77.1 23 2.7 36.9
17:25 1018 30.06 847 25.01 25.1 77.1 23 2.8 37.1
17:30 1018 30.06 847 25.01 24.9 76.8 23 2.8 37
17:35 1018 30.06 847 25.01 25.1 77.1 22 2.2 36
17:40 1018 30.06 847 25.01 25.3 77.6 22 2.2 36
17:45 1018 30.06 847 25.01 25.2 77.3 22 2 35.6
17:50 1018 30.06 847 25.01 25.3 77.5 24 3.5 38.2
17:55 1018 30.06 847 25.01 25.5 77.8 23 2.9 37.2
18:00 1018 30.06 847 25.01 25.6 78 22 2.3 36.1
18:05 1018 30.06 847 25.01 25.9 78.6 20 1.8 35.3
18:10 1018 30.06 847 25.01 25.4 77.7 22 2.3 36.1
18:15 1018 30.06 847 25.01 25.1 77.1 22 1.8 35.3
18:20 1018 30.06 847 25.01 24.8 76.7 23 2.5 36.5
18:25 1018 30.06 847 25.01 25.4 77.7 22 2.3 36.2
18:30 1018 30.06 847 25.01 25.6 78.2 23 3 37.3
18:35 1018 30.06 847 25.01 25.8 78.4 23 3.2 37.8
18:40 1018 30.06 847 25.01 25.7 78.2 22 2.4 36.3
18:45 1018 30.06 847 25.01 25.2 77.3 22 2.1 35.7
18:50 1018 30.06 847 25.01 24.8 76.6 22 2.1 35.8
18:55 1018 30.06 847 25.01 24.7 76.4 23 2.3 36.2
19:00 1018 30.06 847 25.01 24.4 75.9 23 2.1 35.8
19:05 1018 30.06 847 25.01 24.4 76 23 2.4 36.3
19:10 1018 30.06 847 25.01 24.7 76.4 22 1.8 35.2
19:15 1018 30.06 847 25.01 24.5 76.1 22 1.9 35.4
19:20 1018 30.06 847 25.01 24.8 76.7 22 2 35.5
19:25 1018 30.06 847 25.01 25.1 77.2 22 2 35.6
19:30 1018 30.06 847 25.01 25.1 77.2 22 2.3 36.1
19:35 1018 30.06 847 25.01 24.3 75.8 24 2.4 36.4
19:40 1018 30.06 847 25.01 24.1 75.4 24 2.3 36.1
19:45 1018 30.06 847 25.01 23.9 75.1 23 2 35.7
19:50 1018 30.06 847 25.01 23.9 75 24 2.3 36.2
19:55 1018 30.06 847 25.01 23.7 74.7 24 2 35.6
20:00 1018 30.06 847 25.01 23.5 74.3 24 2 35.6
20:05 1018 30.06 847 25.01 23.5 74.2 23 1.6 34.9
20:10 1018 30.06 847 25.01 23.4 74 29 4.6 40.2
20:15 1018 30.06 847 25.01 23 73.3 32 5.6 42
20:20 1018 30.06 847 25.01 22.7 72.8 31 5.1 41.2
20:25 1018 30.06 847 25.01 22.6 72.6 31 4.7 40.5
20:30 1018 30.06 847 25.01 22.5 72.6 32 5.4 41.8
20:35 1018 30.06 847 25.01 22.6 72.6 32 5.4 41.7
20:40 1017 30.03 847 25.01 22.5 72.5 32 5 41.1
20:45 1018 30.06 847 25.01 22.4 72.3 32 5.1 41.1
20:50 1018 30.06 847 25.01 22.4 72.3 32 5.2 41.3
20:55 1018 30.06 847 25.01 22.3 72.2 34 5.9 42.6
21:00 1018 30.06 847 25.01 22.4 72.3 34 6 42.8
21:05 1018 30.06 847 25.01 22.2 71.9 33 5.2 41.4
21:10 1018 30.06 847 25.01 21.8 71.2 38 6.9 44.4
21:15 1018 30.06 847 25.01 21.4 70.5 38 6.7 44
21:20 1018 30.06 847 25.01 20.9 69.6 50 10.2 50.4
21:25 1018 30.06 847 25.01 20.2 68.4 44 7.8 46.1
21:30 1018 30.06 847 25.01 20 68 52 9.9 49.8
21:35 1018 30.06 847 25.01 19.1 66.5 51 8.8 47.8
21:40 1018 30.06 847 25.01 18.3 64.9 54 8.8 47.9
21:45 1018 30.06 847 25.01 17.9 64.1 49 7.1 44.8
21:50 1018 30.06 847 25.01 18.1 64.5 47 6.7 44
21:55 1018 30.06 847 25.01 17.8 64.1 49 7.1 44.9
22:00 1018 30.06 847 25.01 17.5 63.5 51 7.3 45.1
22:05 1018 30.06 847 25.01 17.1 62.9 51 7.2 44.9
22:10 1018 30.06 847 25.01 17.1 62.7 51 7.1 44.8
22:15 1018 30.06 847 25.01 17 62.5 55 8 46.4
22:20 1018 30.06 847 25.01 16.7 62.1 53 7.1 44.8
22:25 1018 30.06 847 25.01 16.4 61.5 53 7 44.5
22:30 1018 30.06 847 25.01 16.3 61.4 54 7.1 44.8
22:35 1018 30.06 847 25.01 16.2 61.2 54 7.1 44.8
22:40 1018 30.06 847 25.01 16.2 61.1 55 7.1 44.8
22:45 1018 30.06 847 25.01 16 60.8 56 7.3 45.1
22:50 1018 30.06 847 25.01 15.8 60.5 54 6.7 44.1
22:55 1018 30.06 847 25.01 16.1 60.9 53 6.5 43.6
23:00 1018 30.06 847 25.01 16.1 60.9 52 6.4 43.5
23:05 1018 30.06 847 25.01 16 60.9 53 6.5 43.6
23:10 1018 30.06 847 25.01 15.9 60.7 53 6.5 43.7
23:15 1018 30.06 847 25.01 16.2 61.1 51 6.1 43.1
23:20 1018 30.06 847 25.01 16.2 61.2 52 6.4 43.6
23:25 1018 30.06 847 25.01 16 60.8 54 6.7 44
23:30 1018 30.06 847 25.01 15.8 60.4 54 6.6 44
23:35 1018 30.06 847 25.01 15.6 60 54 6.5 43.7
23:40 1018 30.06 847 25.01 15.5 60 54 6.2 43.2
23:45 1018 30.06 847 25.01 15.7 60.2 54 6.4 43.4
23:50 1018 30.06 847 25.01 15.7 60.3 53 6.3 43.3
23:55 1018 30.06 847 25.01 15.7 60.3 54 6.5 43.8
24:00 1018 30.06 847 25.01 15.7 60.3 50 5.3 41.6